Terminal Aerodrome Forecast
Issued by NWS Cleveland, OH

Home | Current Version | Previous Version | Graphics & Text | Print | Product List | Glossary On
Versions: 1 2 3 4 5 6 7 8 9 10 11 12 13 14 15 16 17 18 19 20 21 22 23
993
FTUS41 KCLE 131934 AAA
TAFCAK
TAF AMD
KCAK 131934Z 1320/1418 20011KT 3/4SM -SN OVC015
     FM132300 17012KT 6SM -SN OVC040
      TEMPO 1323/1324 OVC025
     FM140000 11011KT 3/4SM -SN BKN015 OVC035
      TEMPO 1400/1404 OVC010
     FM140400 09011KT 1SM -SHSN OVC010
     FM140900 36011KT 3SM -SHSN OVC010
     FM141200 35012KT P6SM SCT015 OVC030=

USA.gov is the U.S. government's official web portal to all federal, state and local government web resources and services.